sensor_id;sensor_type;location;lat;lon;timestamp;temperature;humidity
45319;DHT22;31057;48.498;32.260;2022-08-21T00:00:31;21.10;99.90
45319;DHT22;31057;48.498;32.260;2022-08-21T00:03:33;21.10;99.90
45319;DHT22;31057;48.498;32.260;2022-08-21T00:06:36;21.10;99.90
45319;DHT22;31057;48.498;32.260;2022-08-21T00:09:39;20.90;99.90
45319;DHT22;31057;48.498;32.260;2022-08-21T00:12:42;20.90;99.90
45319;DHT22;31057;48.498;32.260;2022-08-21T00:15:46;20.80;99.90
45319;DHT22;31057;48.498;32.260;2022-08-21T00:18:49;20.80;99.90
45319;DHT22;31057;48.498;32.260;2022-08-21T00:21:52;20.90;99.90
45319;DHT22;31057;48.498;32.260;2022-08-21T00:24:54;20.70;99.90
45319;DHT22;31057;48.498;32.260;2022-08-21T00:27:56;20.70;99.90
45319;DHT22;31057;48.498;32.260;2022-08-21T00:30:58;20.80;99.90
45319;DHT22;31057;48.498;32.260;2022-08-21T00:34:01;20.80;99.90
45319;DHT22;31057;48.498;32.260;2022-08-21T00:37:03;20.70;99.90
45319;DHT22;31057;48.498;32.260;2022-08-21T00:40:09;20.60;99.90
45319;DHT22;31057;48.498;32.260;2022-08-21T00:43:16;20.50;99.90
45319;DHT22;31057;48.498;32.260;2022-08-21T00:46:18;20.40;99.90
45319;DHT22;31057;48.498;32.260;2022-08-21T00:49:20;20.40;99.90
45319;DHT22;31057;48.498;32.260;2022-08-21T00:52:27;20.30;99.90
45319;DHT22;31057;48.498;32.260;2022-08-21T00:55:30;20.40;99.90
45319;DHT22;31057;48.498;32.260;2022-08-21T00:58:33;20.30;99.90
45319;DHT22;31057;48.498;32.260;2022-08-21T01:01:38;20.40;99.90
45319;DHT22;31057;48.498;32.260;2022-08-21T01:04:40;20.30;99.90
45319;DHT22;31057;48.498;32.260;2022-08-21T01:07:43;20.40;99.90
45319;DHT22;31057;48.498;32.260;2022-08-21T01:10:46;20.30;99.90
45319;DHT22;31057;48.498;32.260;2022-08-21T01:13:55;20.30;99.90
45319;DHT22;31057;48.498;32.260;2022-08-21T01:16:58;20.00;99.90
45319;DHT22;31057;48.498;32.260;2022-08-21T01:20:04;20.10;99.90
45319;DHT22;31057;48.498;32.260;2022-08-21T01:23:07;19.90;99.90
45319;DHT22;31057;48.498;32.260;2022-08-21T01:26:09;19.90;99.90
45319;DHT22;31057;48.498;32.260;2022-08-21T01:29:25;19.80;99.90
45319;DHT22;31057;48.498;32.260;2022-08-21T01:32:28;19.70;99.90
45319;DHT22;31057;48.498;32.260;2022-08-21T01:35:30;19.70;99.90
45319;DHT22;31057;48.498;32.260;2022-08-21T01:38:32;19.60;99.90
45319;DHT22;31057;48.498;32.260;2022-08-21T01:41:34;19.50;99.90
45319;DHT22;31057;48.498;32.260;2022-08-21T01:44:36;19.40;99.90
45319;DHT22;31057;48.498;32.260;2022-08-21T01:47:38;19.60;99.90
45319;DHT22;31057;48.498;32.260;2022-08-21T01:50:40;19.40;99.90
45319;DHT22;31057;48.498;32.260;2022-08-21T01:53:42;19.40;99.90
45319;DHT22;31057;48.498;32.260;2022-08-21T01:56:47;19.40;99.90
45319;DHT22;31057;48.498;32.260;2022-08-21T01:59:50;19.40;99.90
45319;DHT22;31057;48.498;32.260;2022-08-21T02:02:52;19.40;99.90
45319;DHT22;31057;48.498;32.260;2022-08-21T02:05:54;19.20;99.90
45319;DHT22;31057;48.498;32.260;2022-08-21T02:08:56;19.10;99.90
45319;DHT22;31057;48.498;32.260;2022-08-21T02:11:58;19.00;99.90
45319;DHT22;31057;48.498;32.260;2022-08-21T02:15:02;18.90;99.90
45319;DHT22;31057;48.498;32.260;2022-08-21T02:18:05;18.90;99.90
45319;DHT22;31057;48.498;32.260;2022-08-21T02:21:08;18.80;99.90
45319;DHT22;31057;48.498;32.260;2022-08-21T02:24:11;18.60;99.90
45319;DHT22;31057;48.498;32.260;2022-08-21T02:27:13;18.60;99.90
45319;DHT22;31057;48.498;32.260;2022-08-21T02:30:20;18.60;99.90
45319;DHT22;31057;48.498;32.260;2022-08-21T02:33:22;18.60;99.90
45319;DHT22;31057;48.498;32.260;2022-08-21T02:36:25;18.30;99.90
45319;DHT22;31057;48.498;32.260;2022-08-21T02:39:27;18.30;99.90
45319;DHT22;31057;48.498;32.260;2022-08-21T02:42:28;18.20;99.90
45319;DHT22;31057;48.498;32.260;2022-08-21T02:45:32;18.10;99.90
45319;DHT22;31057;48.498;32.260;2022-08-21T02:48:35;17.70;99.90
45319;DHT22;31057;48.498;32.260;2022-08-21T02:51:37;17.60;99.90
45319;DHT22;31057;48.498;32.260;2022-08-21T02:54:39;17.60;99.90
45319;DHT22;31057;48.498;32.260;2022-08-21T02:57:41;17.50;99.90
45319;DHT22;31057;48.498;32.260;2022-08-21T03:00:44;17.60;99.90
45319;DHT22;31057;48.498;32.260;2022-08-21T03:03:47;17.50;99.90
45319;DHT22;31057;48.498;32.260;2022-08-21T03:06:53;17.50;99.90
45319;DHT22;31057;48.498;32.260;2022-08-21T03:09:56;17.50;99.90
45319;DHT22;31057;48.498;32.260;2022-08-21T03:12:58;17.50;99.90
45319;DHT22;31057;48.498;32.260;2022-08-21T03:16:00;17.50;99.90
45319;DHT22;31057;48.498;32.260;2022-08-21T03:19:05;17.50;99.90
45319;DHT22;31057;48.498;32.260;2022-08-21T03:22:07;17.50;99.90
45319;DHT22;31057;48.498;32.260;2022-08-21T03:25:09;17.50;99.90
45319;DHT22;31057;48.498;32.260;2022-08-21T03:28:20;17.60;99.90
45319;DHT22;31057;48.498;32.260;2022-08-21T03:31:23;17.70;99.90
45319;DHT22;31057;48.498;32.260;2022-08-21T03:34:25;17.60;99.90
45319;DHT22;31057;48.498;32.260;2022-08-21T03:37:28;17.70;99.90
45319;DHT22;31057;48.498;32.260;2022-08-21T03:40:30;17.70;99.90
45319;DHT22;31057;48.498;32.260;2022-08-21T03:43:32;17.70;99.90
45319;DHT22;31057;48.498;32.260;2022-08-21T03:46:34;17.80;99.90
45319;DHT22;31057;48.498;32.260;2022-08-21T03:49:37;17.80;99.90
45319;DHT22;31057;48.498;32.260;2022-08-21T03:52:39;17.80;99.90
45319;DHT22;31057;48.498;32.260;2022-08-21T03:55:41;17.90;99.90
45319;DHT22;31057;48.498;32.260;2022-08-21T03:58:44;17.90;99.90
45319;DHT22;31057;48.498;32.260;2022-08-21T04:01:59;18.00;99.90
45319;DHT22;31057;48.498;32.260;2022-08-21T04:05:01;18.10;99.90
45319;DHT22;31057;48.498;32.260;2022-08-21T04:08:04;18.30;99.90
45319;DHT22;31057;48.498;32.260;2022-08-21T04:11:07;18.30;99.90
45319;DHT22;31057;48.498;32.260;2022-08-21T04:14:09;18.50;99.90
45319;DHT22;31057;48.498;32.260;2022-08-21T04:17:12;18.50;99.90
45319;DHT22;31057;48.498;32.260;2022-08-21T04:20:16;18.60;99.90
45319;DHT22;31057;48.498;32.260;2022-08-21T04:23:19;18.70;99.90
45319;DHT22;31057;48.498;32.260;2022-08-21T04:26:25;18.90;99.90
45319;DHT22;31057;48.498;32.260;2022-08-21T04:29:27;18.90;99.90
45319;DHT22;31057;48.498;32.260;2022-08-21T04:32:30;18.90;99.90
45319;DHT22;31057;48.498;32.260;2022-08-21T04:35:32;19.00;99.90
45319;DHT22;31057;48.498;32.260;2022-08-21T04:38:34;19.20;99.90
45319;DHT22;31057;48.498;32.260;2022-08-21T04:41:38;19.10;99.90
45319;DHT22;31057;48.498;32.260;2022-08-21T04:44:40;19.20;99.90
45319;DHT22;31057;48.498;32.260;2022-08-21T04:47:42;19.10;99.90
45319;DHT22;31057;48.498;32.260;2022-08-21T04:51:09;19.10;99.90
45319;DHT22;31057;48.498;32.260;2022-08-21T04:54:17;19.30;99.90
45319;DHT22;31057;48.498;32.260;2022-08-21T04:57:20;19.40;99.90
45319;DHT22;31057;48.498;32.260;2022-08-21T05:00:37;19.50;99.90
45319;DHT22;31057;48.498;32.260;2022-08-21T05:03:39;19.50;99.90
45319;DHT22;31057;48.498;32.260;2022-08-21T05:06:44;19.70;99.90
45319;DHT22;31057;48.498;32.260;2022-08-21T05:09:49;19.90;99.90
45319;DHT22;31057;48.498;32.260;2022-08-21T05:12:51;20.00;99.90
45319;DHT22;31057;48.498;32.260;2022-08-21T05:15:53;20.10;99.90
45319;DHT22;31057;48.498;32.260;2022-08-21T05:18:55;19.90;99.90
45319;DHT22;31057;48.498;32.260;2022-08-21T05:21:57;20.00;99.90
45319;DHT22;31057;48.498;32.260;2022-08-21T05:24:59;20.20;99.90
45319;DHT22;31057;48.498;32.260;2022-08-21T05:28:02;20.30;99.90
45319;DHT22;31057;48.498;32.260;2022-08-21T05:31:04;20.50;99.90
45319;DHT22;31057;48.498;32.260;2022-08-21T05:34:06;20.40;99.90
45319;DHT22;31057;48.498;32.260;2022-08-21T05:37:10;20.50;99.90
45319;DHT22;31057;48.498;32.260;2022-08-21T05:40:13;20.50;99.90
45319;DHT22;31057;48.498;32.260;2022-08-21T05:43:23;20.60;99.90
45319;DHT22;31057;48.498;32.260;2022-08-21T05:46:25;20.60;99.90
45319;DHT22;31057;48.498;32.260;2022-08-21T05:49:27;20.20;99.90
45319;DHT22;31057;48.498;32.260;2022-08-21T05:52:29;20.40;99.90
45319;DHT22;31057;48.498;32.260;2022-08-21T05:55:31;20.40;99.90
45319;DHT22;31057;48.498;32.260;2022-08-21T05:58:34;20.60;99.90
45319;DHT22;31057;48.498;32.260;2022-08-21T06:01:36;20.80;99.90
45319;DHT22;31057;48.498;32.260;2022-08-21T06:04:39;20.90;99.90
45319;DHT22;31057;48.498;32.260;2022-08-21T06:07:41;20.90;99.90
45319;DHT22;31057;48.498;32.260;2022-08-21T06:10:44;20.90;99.90
45319;DHT22;31057;48.498;32.260;2022-08-21T06:13:46;21.00;99.90
45319;DHT22;31057;48.498;32.260;2022-08-21T06:16:48;21.10;99.90
45319;DHT22;31057;48.498;32.260;2022-08-21T06:19:53;21.10;99.90
45319;DHT22;31057;48.498;32.260;2022-08-21T06:22:55;21.00;99.90
45319;DHT22;31057;48.498;32.260;2022-08-21T06:25:58;21.20;99.90
45319;DHT22;31057;48.498;32.260;2022-08-21T06:29:00;21.30;99.90
45319;DHT22;31057;48.498;32.260;2022-08-21T06:32:02;21.30;99.90
45319;DHT22;31057;48.498;32.260;2022-08-21T06:35:05;21.50;99.90
45319;DHT22;31057;48.498;32.260;2022-08-21T06:38:08;21.40;99.90
45319;DHT22;31057;48.498;32.260;2022-08-21T06:41:10;21.50;99.90
45319;DHT22;31057;48.498;32.260;2022-08-21T06:44:16;21.80;99.90
45319;DHT22;31057;48.498;32.260;2022-08-21T06:47:18;21.90;99.90
45319;DHT22;31057;48.498;32.260;2022-08-21T06:50:20;22.00;99.90
45319;DHT22;31057;48.498;32.260;2022-08-21T06:53:22;22.30;99.90
45319;DHT22;31057;48.498;32.260;2022-08-21T06:56:24;22.10;99.90
45319;DHT22;31057;48.498;32.260;2022-08-21T06:59:27;22.20;99.90
45319;DHT22;31057;48.498;32.260;2022-08-21T07:02:29;22.30;99.90
45319;DHT22;31057;48.498;32.260;2022-08-21T07:05:31;22.30;99.90
45319;DHT22;31057;48.498;32.260;2022-08-21T07:08:33;22.50;99.90
45319;DHT22;31057;48.498;32.260;2022-08-21T07:11:36;22.60;99.90
45319;DHT22;31057;48.498;32.260;2022-08-21T07:14:48;22.80;99.90
45319;DHT22;31057;48.498;32.260;2022-08-21T07:17:50;22.80;99.90
45319;DHT22;31057;48.498;32.260;2022-08-21T07:20:52;22.80;99.90
45319;DHT22;31057;48.498;32.260;2022-08-21T07:23:54;23.00;99.90
45319;DHT22;31057;48.498;32.260;2022-08-21T07:26:56;23.20;99.90
45319;DHT22;31057;48.498;32.260;2022-08-21T07:29:58;23.00;99.90
45319;DHT22;31057;48.498;32.260;2022-08-21T07:33:00;23.10;99.90
45319;DHT22;31057;48.498;32.260;2022-08-21T07:36:03;23.30;99.90
45319;DHT22;31057;48.498;32.260;2022-08-21T07:39:05;23.20;99.90
45319;DHT22;31057;48.498;32.260;2022-08-21T07:42:07;23.30;99.90
45319;DHT22;31057;48.498;32.260;2022-08-21T07:45:10;23.40;99.90
45319;DHT22;31057;48.498;32.260;2022-08-21T07:48:12;23.60;99.90
45319;DHT22;31057;48.498;32.260;2022-08-21T07:51:15;23.70;99.90
45319;DHT22;31057;48.498;32.260;2022-08-21T07:54:18;23.90;99.90
45319;DHT22;31057;48.498;32.260;2022-08-21T07:57:33;23.90;99.90
45319;DHT22;31057;48.498;32.260;2022-08-21T08:00:36;23.80;99.90
45319;DHT22;31057;48.498;32.260;2022-08-21T08:03:38;23.70;99.90
45319;DHT22;31057;48.498;32.260;2022-08-21T08:06:40;23.70;99.90
45319;DHT22;31057;48.498;32.260;2022-08-21T08:09:42;23.80;99.90
45319;DHT22;31057;48.498;32.260;2022-08-21T08:12:45;24.00;99.90
45319;DHT22;31057;48.498;32.260;2022-08-21T08:15:48;24.00;99.90
45319;DHT22;31057;48.498;32.260;2022-08-21T08:18:50;23.90;99.90
45319;DHT22;31057;48.498;32.260;2022-08-21T08:21:52;24.00;99.90
45319;DHT22;31057;48.498;32.260;2022-08-21T08:24:55;24.00;99.90
45319;DHT22;31057;48.498;32.260;2022-08-21T08:27:57;24.30;99.90
45319;DHT22;31057;48.498;32.260;2022-08-21T08:31:00;24.00;99.90
45319;DHT22;31057;48.498;32.260;2022-08-21T08:34:02;24.10;99.90
45319;DHT22;31057;48.498;32.260;2022-08-21T08:37:07;24.10;99.90
45319;DHT22;31057;48.498;32.260;2022-08-21T08:40:32;24.40;99.90
45319;DHT22;31057;48.498;32.260;2022-08-21T08:43:42;24.50;99.90
45319;DHT22;31057;48.498;32.260;2022-08-21T08:46:48;24.60;99.90
45319;DHT22;31057;48.498;32.260;2022-08-21T08:50:11;24.80;99.90
45319;DHT22;31057;48.498;32.260;2022-08-21T08:53:49;24.90;99.90
45319;DHT22;31057;48.498;32.260;2022-08-21T08:56:52;25.20;99.90
45319;DHT22;31057;48.498;32.260;2022-08-21T08:59:59;24.80;99.90
45319;DHT22;31057;48.498;32.260;2022-08-21T10:23:02;26.30;99.90
45319;DHT22;31057;48.498;32.260;2022-08-21T10:29:47;26.30;99.90
45319;DHT22;31057;48.498;32.260;2022-08-21T10:33:19;26.60;99.90
45319;DHT22;31057;48.498;32.260;2022-08-21T10:36:34;26.40;99.90
45319;DHT22;31057;48.498;32.260;2022-08-21T10:43:52;26.70;99.90
45319;DHT22;31057;48.498;32.260;2022-08-21T10:46:47;26.50;99.90
45319;DHT22;31057;48.498;32.260;2022-08-21T10:57:04;26.40;99.90
45319;DHT22;31057;48.498;32.260;2022-08-21T11:00:22;26.70;99.90
45319;DHT22;31057;48.498;32.260;2022-08-21T11:03:33;26.60;99.90
45319;DHT22;31057;48.498;32.260;2022-08-21T11:06:46;26.30;99.90
45319;DHT22;31057;48.498;32.260;2022-08-21T11:09:51;26.50;99.90
45319;DHT22;31057;48.498;32.260;2022-08-21T11:13:06;26.60;99.90
45319;DHT22;31057;48.498;32.260;2022-08-21T11:20:20;27.30;99.90
45319;DHT22;31057;48.498;32.260;2022-08-21T11:23:30;27.10;99.90
45319;DHT22;31057;48.498;32.260;2022-08-21T11:30:19;27.10;99.90
45319;DHT22;31057;48.498;32.260;2022-08-21T11:36:38;26.90;99.90
45319;DHT22;31057;48.498;32.260;2022-08-21T11:40:08;26.70;99.90
45319;DHT22;31057;48.498;32.260;2022-08-21T11:50:15;27.00;99.90
45319;DHT22;31057;48.498;32.260;2022-08-21T11:56:45;27.20;99.90
45319;DHT22;31057;48.498;32.260;2022-08-21T12:03:07;27.20;99.90
45319;DHT22;31057;48.498;32.260;2022-08-21T12:06:14;27.60;99.90
45319;DHT22;31057;48.498;32.260;2022-08-21T12:12:37;27.20;99.90
45319;DHT22;31057;48.498;32.260;2022-08-21T12:15:40;27.50;99.90
45319;DHT22;31057;48.498;32.260;2022-08-21T12:18:43;27.60;99.90
45319;DHT22;31057;48.498;32.260;2022-08-21T12:25:08;27.50;99.90
45319;DHT22;31057;48.498;32.260;2022-08-21T12:28:21;27.30;99.90
45319;DHT22;31057;48.498;32.260;2022-08-21T12:31:25;27.70;99.90
45319;DHT22;31057;48.498;32.260;2022-08-21T12:34:40;27.70;99.90
45319;DHT22;31057;48.498;32.260;2022-08-21T12:41:22;27.70;99.90
45319;DHT22;31057;48.498;32.260;2022-08-21T12:44:53;27.70;99.90
45319;DHT22;31057;48.498;32.260;2022-08-21T12:48:08;27.50;99.90
45319;DHT22;31057;48.498;32.260;2022-08-21T12:51:15;27.50;99.90
45319;DHT22;31057;48.498;32.260;2022-08-21T12:54:32;28.00;99.90
45319;DHT22;31057;48.498;32.260;2022-08-21T12:57:40;28.00;99.90
45319;DHT22;31057;48.498;32.260;2022-08-21T13:00:52;28.20;99.90
45319;DHT22;31057;48.498;32.260;2022-08-21T13:03:58;28.20;99.90
45319;DHT22;31057;48.498;32.260;2022-08-21T13:07:11;28.30;99.90
45319;DHT22;31057;48.498;32.260;2022-08-21T13:10:23;27.70;99.90
45319;DHT22;31057;48.498;32.260;2022-08-21T13:13:26;27.60;99.90
45319;DHT22;31057;48.498;32.260;2022-08-21T13:16:30;28.10;99.90
45319;DHT22;31057;48.498;32.260;2022-08-21T13:19:33;28.50;99.90
45319;DHT22;31057;48.498;32.260;2022-08-21T13:22:44;28.30;99.90
45319;DHT22;31057;48.498;32.260;2022-08-21T13:25:46;28.40;99.90
45319;DHT22;31057;48.498;32.260;2022-08-21T13:28:49;28.70;99.90
45319;DHT22;31057;48.498;32.260;2022-08-21T13:31:54;28.60;99.90
45319;DHT22;31057;48.498;32.260;2022-08-21T13:34:58;29.00;99.90
45319;DHT22;31057;48.498;32.260;2022-08-21T13:38:01;29.40;99.90
45319;DHT22;31057;48.498;32.260;2022-08-21T13:41:37;29.60;99.90
45319;DHT22;31057;48.498;32.260;2022-08-21T13:44:36;29.60;99.90
45319;DHT22;31057;48.498;32.260;2022-08-21T13:47:39;30.40;99.90
45319;DHT22;31057;48.498;32.260;2022-08-21T13:50:42;30.70;99.90
45319;DHT22;31057;48.498;32.260;2022-08-21T13:53:48;31.20;99.90
45319;DHT22;31057;48.498;32.260;2022-08-21T13:56:55;31.20;99.90
45319;DHT22;31057;48.498;32.260;2022-08-21T14:00:15;30.80;99.90
45319;DHT22;31057;48.498;32.260;2022-08-21T14:03:38;30.50;99.90
45319;DHT22;31057;48.498;32.260;2022-08-21T14:06:43;31.00;99.90
45319;DHT22;31057;48.498;32.260;2022-08-21T14:09:46;31.40;99.90
45319;DHT22;31057;48.498;32.260;2022-08-21T14:12:58;30.00;99.90
45319;DHT22;31057;48.498;32.260;2022-08-21T14:16:08;30.90;99.10
45319;DHT22;31057;48.498;32.260;2022-08-21T14:19:21;32.40;96.90
45319;DHT22;31057;48.498;32.260;2022-08-21T14:22:31;33.20;95.30
45319;DHT22;31057;48.498;32.260;2022-08-21T14:25:39;33.30;93.50
45319;DHT22;31057;48.498;32.260;2022-08-21T14:28:44;32.20;93.90
45319;DHT22;31057;48.498;32.260;2022-08-21T14:31:56;31.70;93.80
45319;DHT22;31057;48.498;32.260;2022-08-21T14:34:58;32.50;94.10
45319;DHT22;31057;48.498;32.260;2022-08-21T14:38:01;32.80;93.30
45319;DHT22;31057;48.498;32.260;2022-08-21T14:44:16;32.80;92.50
45319;DHT22;31057;48.498;32.260;2022-08-21T14:47:18;33.20;92.20
45319;DHT22;31057;48.498;32.260;2022-08-21T14:50:20;33.00;91.60
45319;DHT22;31057;48.498;32.260;2022-08-21T14:53:22;32.80;91.90
45319;DHT22;31057;48.498;32.260;2022-08-21T14:56:24;33.50;91.30
45319;DHT22;31057;48.498;32.260;2022-08-21T14:59:27;33.20;91.30
45319;DHT22;31057;48.498;32.260;2022-08-21T15:02:29;32.30;92.20
45319;DHT22;31057;48.498;32.260;2022-08-21T15:05:31;32.10;93.00
45319;DHT22;31057;48.498;32.260;2022-08-21T15:08:35;32.60;93.10
45319;DHT22;31057;48.498;32.260;2022-08-21T15:11:37;32.60;93.80
45319;DHT22;31057;48.498;32.260;2022-08-21T15:14:43;32.00;93.50
45319;DHT22;31057;48.498;32.260;2022-08-21T15:17:45;32.20;93.50
45319;DHT22;31057;48.498;32.260;2022-08-21T15:20:50;31.90;94.40
45319;DHT22;31057;48.498;32.260;2022-08-21T15:23:53;30.50;96.40
45319;DHT22;31057;48.498;32.260;2022-08-21T15:26:56;30.40;97.50
45319;DHT22;31057;48.498;32.260;2022-08-21T15:29:58;28.50;99.80
45319;DHT22;31057;48.498;32.260;2022-08-21T15:33:00;27.90;99.90
45319;DHT22;31057;48.498;32.260;2022-08-21T15:36:02;28.90;99.90
45319;DHT22;31057;48.498;32.260;2022-08-21T15:39:04;29.00;99.90
45319;DHT22;31057;48.498;32.260;2022-08-21T15:42:06;28.70;99.90
45319;DHT22;31057;48.498;32.260;2022-08-21T15:45:12;29.60;99.90
45319;DHT22;31057;48.498;32.260;2022-08-21T15:48:14;29.70;99.50
45319;DHT22;31057;48.498;32.260;2022-08-21T15:51:17;29.80;99.60
45319;DHT22;31057;48.498;32.260;2022-08-21T15:54:19;29.30;99.90
45319;DHT22;31057;48.498;32.260;2022-08-21T15:57:23;29.10;99.90
45319;DHT22;31057;48.498;32.260;2022-08-21T16:00:26;28.80;99.90
45319;DHT22;31057;48.498;32.260;2022-08-21T16:03:29;29.10;99.90
45319;DHT22;31057;48.498;32.260;2022-08-21T16:06:31;28.80;99.90
45319;DHT22;31057;48.498;32.260;2022-08-21T16:09:53;28.20;99.90
45319;DHT22;31057;48.498;32.260;2022-08-21T16:13:02;28.10;99.90
45319;DHT22;31057;48.498;32.260;2022-08-21T16:16:05;28.20;99.90
45319;DHT22;31057;48.498;32.260;2022-08-21T16:19:07;28.10;99.90
45319;DHT22;31057;48.498;32.260;2022-08-21T16:22:09;27.90;99.90
45319;DHT22;31057;48.498;32.260;2022-08-21T16:25:13;27.60;99.90
45319;DHT22;31057;48.498;32.260;2022-08-21T16:28:17;27.30;99.90
45319;DHT22;31057;48.498;32.260;2022-08-21T16:31:19;26.90;99.90
45319;DHT22;31057;48.498;32.260;2022-08-21T16:34:21;26.60;99.90
45319;DHT22;31057;48.498;32.260;2022-08-21T16:37:23;26.20;99.90
45319;DHT22;31057;48.498;32.260;2022-08-21T16:40:25;25.80;99.90
45319;DHT22;31057;48.498;32.260;2022-08-21T16:43:29;25.60;99.90
45319;DHT22;31057;48.498;32.260;2022-08-21T16:46:34;25.40;99.90
45319;DHT22;31057;48.498;32.260;2022-08-21T16:49:37;25.10;99.90
45319;DHT22;31057;48.498;32.260;2022-08-21T16:52:39;25.00;99.90
45319;DHT22;31057;48.498;32.260;2022-08-21T16:55:42;24.90;99.90
45319;DHT22;31057;48.498;32.260;2022-08-21T16:58:46;24.80;99.90
45319;DHT22;31057;48.498;32.260;2022-08-21T17:01:49;24.80;99.90
45319;DHT22;31057;48.498;32.260;2022-08-21T17:04:52;24.60;99.90
45319;DHT22;31057;48.498;32.260;2022-08-21T17:07:54;24.60;99.90
45319;DHT22;31057;48.498;32.260;2022-08-21T17:10:57;24.60;99.90
45319;DHT22;31057;48.498;32.260;2022-08-21T17:14:02;24.40;99.90
45319;DHT22;31057;48.498;32.260;2022-08-21T17:17:07;24.30;99.90
45319;DHT22;31057;48.498;32.260;2022-08-21T17:20:10;24.30;99.90
45319;DHT22;31057;48.498;32.260;2022-08-21T17:23:12;24.30;99.90
45319;DHT22;31057;48.498;32.260;2022-08-21T17:26:15;24.30;99.90
45319;DHT22;31057;48.498;32.260;2022-08-21T17:29:19;24.20;99.90
45319;DHT22;31057;48.498;32.260;2022-08-21T17:32:24;24.20;99.90
45319;DHT22;31057;48.498;32.260;2022-08-21T17:35:26;24.00;99.90
45319;DHT22;31057;48.498;32.260;2022-08-21T17:38:29;23.90;99.90
45319;DHT22;31057;48.498;32.260;2022-08-21T17:41:32;23.90;99.90
45319;DHT22;31057;48.498;32.260;2022-08-21T17:44:38;23.90;99.90
45319;DHT22;31057;48.498;32.260;2022-08-21T17:47:41;23.90;99.90
45319;DHT22;31057;48.498;32.260;2022-08-21T17:50:43;23.90;99.90
45319;DHT22;31057;48.498;32.260;2022-08-21T17:53:46;24.00;99.90
45319;DHT22;31057;48.498;32.260;2022-08-21T17:56:48;23.90;99.90
45319;DHT22;31057;48.498;32.260;2022-08-21T17:59:50;23.80;99.90
45319;DHT22;31057;48.498;32.260;2022-08-21T18:03:05;23.70;99.90
45319;DHT22;31057;48.498;32.260;2022-08-21T18:06:09;23.60;99.90
45319;DHT22;31057;48.498;32.260;2022-08-21T18:09:17;23.50;99.90
45319;DHT22;31057;48.498;32.260;2022-08-21T18:12:21;23.50;99.90
45319;DHT22;31057;48.498;32.260;2022-08-21T18:15:23;23.50;99.90
45319;DHT22;31057;48.498;32.260;2022-08-21T18:18:26;23.40;99.90
45319;DHT22;31057;48.498;32.260;2022-08-21T18:21:29;23.30;99.90
45319;DHT22;31057;48.498;32.260;2022-08-21T18:24:31;23.20;99.90
45319;DHT22;31057;48.498;32.260;2022-08-21T18:27:34;23.20;99.90
45319;DHT22;31057;48.498;32.260;2022-08-21T18:30:41;23.20;99.90
45319;DHT22;31057;48.498;32.260;2022-08-21T18:33:43;23.20;99.90
45319;DHT22;31057;48.498;32.260;2022-08-21T18:37:01;23.10;99.90
45319;DHT22;31057;48.498;32.260;2022-08-21T18:40:04;23.00;99.90
45319;DHT22;31057;48.498;32.260;2022-08-21T18:43:11;23.00;99.90
45319;DHT22;31057;48.498;32.260;2022-08-21T18:46:16;23.00;99.90
45319;DHT22;31057;48.498;32.260;2022-08-21T18:49:18;22.90;99.90
45319;DHT22;31057;48.498;32.260;2022-08-21T18:52:21;22.80;99.90
45319;DHT22;31057;48.498;32.260;2022-08-21T18:55:29;22.80;99.90
45319;DHT22;31057;48.498;32.260;2022-08-21T18:58:32;22.80;99.90
45319;DHT22;31057;48.498;32.260;2022-08-21T19:01:34;22.80;99.90
45319;DHT22;31057;48.498;32.260;2022-08-21T19:04:37;22.80;99.90
45319;DHT22;31057;48.498;32.260;2022-08-21T19:07:59;22.60;99.90
45319;DHT22;31057;48.498;32.260;2022-08-21T19:11:01;22.60;99.90
45319;DHT22;31057;48.498;32.260;2022-08-21T19:14:07;22.50;99.90
45319;DHT22;31057;48.498;32.260;2022-08-21T19:17:16;22.50;99.90
45319;DHT22;31057;48.498;32.260;2022-08-21T19:20:30;22.50;99.90
45319;DHT22;31057;48.498;32.260;2022-08-21T19:23:34;22.60;99.90
45319;DHT22;31057;48.498;32.260;2022-08-21T19:26:36;22.60;99.90
45319;DHT22;31057;48.498;32.260;2022-08-21T19:29:38;22.60;99.90
45319;DHT22;31057;48.498;32.260;2022-08-21T19:32:44;22.60;99.90
45319;DHT22;31057;48.498;32.260;2022-08-21T19:35:47;22.50;99.90
45319;DHT22;31057;48.498;32.260;2022-08-21T19:38:53;22.40;99.90
45319;DHT22;31057;48.498;32.260;2022-08-21T19:41:57;22.40;99.90
45319;DHT22;31057;48.498;32.260;2022-08-21T19:44:59;22.30;99.90
45319;DHT22;31057;48.498;32.260;2022-08-21T19:48:02;22.40;99.90
45319;DHT22;31057;48.498;32.260;2022-08-21T19:51:04;22.30;99.90
45319;DHT22;31057;48.498;32.260;2022-08-21T19:54:28;22.30;99.90
45319;DHT22;31057;48.498;32.260;2022-08-21T19:57:30;22.20;99.90
45319;DHT22;31057;48.498;32.260;2022-08-21T20:00:33;22.30;99.90
45319;DHT22;31057;48.498;32.260;2022-08-21T20:03:36;22.30;99.90
45319;DHT22;31057;48.498;32.260;2022-08-21T20:06:43;22.20;99.90
45319;DHT22;31057;48.498;32.260;2022-08-21T20:09:45;22.20;99.90
45319;DHT22;31057;48.498;32.260;2022-08-21T20:12:50;22.20;99.90
45319;DHT22;31057;48.498;32.260;2022-08-21T20:15:53;22.00;99.90
45319;DHT22;31057;48.498;32.260;2022-08-21T20:18:55;22.00;99.90
45319;DHT22;31057;48.498;32.260;2022-08-21T20:21:58;22.00;99.90
45319;DHT22;31057;48.498;32.260;2022-08-21T20:25:02;21.90;99.90
45319;DHT22;31057;48.498;32.260;2022-08-21T20:28:07;21.80;99.90
45319;DHT22;31057;48.498;32.260;2022-08-21T20:31:10;21.80;99.90
45319;DHT22;31057;48.498;32.260;2022-08-21T20:34:15;21.70;99.90
45319;DHT22;31057;48.498;32.260;2022-08-21T20:37:18;21.60;99.90
45319;DHT22;31057;48.498;32.260;2022-08-21T20:40:37;21.80;99.90
45319;DHT22;31057;48.498;32.260;2022-08-21T20:43:40;21.60;99.90
45319;DHT22;31057;48.498;32.260;2022-08-21T20:46:43;21.60;99.90
45319;DHT22;31057;48.498;32.260;2022-08-21T20:49:50;21.50;99.90
45319;DHT22;31057;48.498;32.260;2022-08-21T20:53:07;21.50;99.90
45319;DHT22;31057;48.498;32.260;2022-08-21T20:56:51;21.40;99.90
45319;DHT22;31057;48.498;32.260;2022-08-21T20:59:52;21.30;99.90
45319;DHT22;31057;48.498;32.260;2022-08-21T21:06:10;21.00;99.90
45319;DHT22;31057;48.498;32.260;2022-08-21T21:09:18;21.10;99.90
45319;DHT22;31057;48.498;32.260;2022-08-21T21:12:34;21.10;99.90
45319;DHT22;31057;48.498;32.260;2022-08-21T21:15:42;21.00;99.90
45319;DHT22;31057;48.498;32.260;2022-08-21T21:25:15;21.10;99.90
45319;DHT22;31057;48.498;32.260;2022-08-21T21:28:29;21.20;99.90
45319;DHT22;31057;48.498;32.260;2022-08-21T21:31:35;21.20;99.90